sensor_id;sensor_type;location;lat;lon;timestamp;P1;durP1;ratioP1;P2;durP2;ratioP2
16792;SDS011;8513;42.662;23.350;2023-11-21T00:01:47;17.97;;;15.00;;
16792;SDS011;8513;42.662;23.350;2023-11-21T00:04:13;23.03;;;13.40;;
16792;SDS011;8513;42.662;23.350;2023-11-21T00:06:40;18.63;;;14.47;;
16792;SDS011;8513;42.662;23.350;2023-11-21T00:09:06;19.53;;;14.07;;
16792;SDS011;8513;42.662;23.350;2023-11-21T00:11:33;17.27;;;13.73;;
16792;SDS011;8513;42.662;23.350;2023-11-21T00:13:59;17.43;;;14.10;;
16792;SDS011;8513;42.662;23.350;2023-11-21T00:16:24;18.47;;;14.13;;
16792;SDS011;8513;42.662;23.350;2023-11-21T00:18:50;19.70;;;13.93;;
16792;SDS011;8513;42.662;23.350;2023-11-21T00:21:16;21.33;;;13.87;;
16792;SDS011;8513;42.662;23.350;2023-11-21T00:23:42;17.87;;;14.20;;
16792;SDS011;8513;42.662;23.350;2023-11-21T00:26:08;17.60;;;14.07;;
16792;SDS011;8513;42.662;23.350;2023-11-21T00:28:33;18.13;;;13.17;;
16792;SDS011;8513;42.662;23.350;2023-11-21T00:30:58;21.83;;;13.93;;
16792;SDS011;8513;42.662;23.350;2023-11-21T00:33:24;18.17;;;13.53;;
16792;SDS011;8513;42.662;23.350;2023-11-21T00:35:50;16.93;;;14.13;;
16792;SDS011;8513;42.662;23.350;2023-11-21T00:38:15;20.63;;;13.43;;
16792;SDS011;8513;42.662;23.350;2023-11-21T00:40:44;17.03;;;13.57;;
16792;SDS011;8513;42.662;23.350;2023-11-21T00:43:10;19.43;;;14.60;;
16792;SDS011;8513;42.662;23.350;2023-11-21T00:45:35;20.83;;;14.33;;
16792;SDS011;8513;42.662;23.350;2023-11-21T00:48:01;21.97;;;14.03;;
16792;SDS011;8513;42.662;23.350;2023-11-21T00:50:29;20.73;;;13.10;;
16792;SDS011;8513;42.662;23.350;2023-11-21T00:52:55;17.30;;;11.73;;
16792;SDS011;8513;42.662;23.350;2023-11-21T00:55:21;17.03;;;11.43;;
16792;SDS011;8513;42.662;23.350;2023-11-21T00:57:46;18.07;;;13.10;;
16792;SDS011;8513;42.662;23.350;2023-11-21T01:00:12;15.97;;;12.13;;
16792;SDS011;8513;42.662;23.350;2023-11-21T01:02:43;15.03;;;9.90;;
16792;SDS011;8513;42.662;23.350;2023-11-21T01:05:12;13.33;;;9.57;;
16792;SDS011;8513;42.662;23.350;2023-11-21T01:07:38;14.57;;;9.87;;
16792;SDS011;8513;42.662;23.350;2023-11-21T01:10:03;13.30;;;9.47;;
16792;SDS011;8513;42.662;23.350;2023-11-21T01:12:36;20.87;;;12.40;;
16792;SDS011;8513;42.662;23.350;2023-11-21T01:15:04;19.40;;;12.77;;
16792;SDS011;8513;42.662;23.350;2023-11-21T01:17:33;18.23;;;12.63;;
16792;SDS011;8513;42.662;23.350;2023-11-21T01:19:59;14.07;;;11.47;;
16792;SDS011;8513;42.662;23.350;2023-11-21T01:22:25;19.97;;;12.70;;
16792;SDS011;8513;42.662;23.350;2023-11-21T01:24:54;14.43;;;10.10;;
16792;SDS011;8513;42.662;23.350;2023-11-21T01:27:19;11.97;;;8.80;;
16792;SDS011;8513;42.662;23.350;2023-11-21T01:29:45;14.93;;;9.77;;
16792;SDS011;8513;42.662;23.350;2023-11-21T01:32:11;15.17;;;10.80;;
16792;SDS011;8513;42.662;23.350;2023-11-21T01:34:36;15.07;;;10.30;;
16792;SDS011;8513;42.662;23.350;2023-11-21T01:37:02;16.70;;;9.73;;
16792;SDS011;8513;42.662;23.350;2023-11-21T01:39:29;17.37;;;11.13;;
16792;SDS011;8513;42.662;23.350;2023-11-21T01:41:55;16.30;;;11.90;;
16792;SDS011;8513;42.662;23.350;2023-11-21T01:44:23;15.33;;;10.70;;
16792;SDS011;8513;42.662;23.350;2023-11-21T01:46:49;16.53;;;11.53;;
16792;SDS011;8513;42.662;23.350;2023-11-21T01:49:15;19.10;;;11.07;;
16792;SDS011;8513;42.662;23.350;2023-11-21T01:51:43;18.27;;;11.70;;
16792;SDS011;8513;42.662;23.350;2023-11-21T01:54:12;17.53;;;10.87;;
16792;SDS011;8513;42.662;23.350;2023-11-21T01:56:37;18.73;;;10.27;;
16792;SDS011;8513;42.662;23.350;2023-11-21T01:59:04;17.20;;;10.20;;
16792;SDS011;8513;42.662;23.350;2023-11-21T02:01:30;13.50;;;10.10;;
16792;SDS011;8513;42.662;23.350;2023-11-21T02:03:56;15.93;;;11.40;;
16792;SDS011;8513;42.662;23.350;2023-11-21T02:06:22;16.83;;;11.97;;
16792;SDS011;8513;42.662;23.350;2023-11-21T02:08:47;17.47;;;11.80;;
16792;SDS011;8513;42.662;23.350;2023-11-21T02:11:14;14.53;;;11.50;;
16792;SDS011;8513;42.662;23.350;2023-11-21T02:13:39;15.47;;;11.00;;
16792;SDS011;8513;42.662;23.350;2023-11-21T02:16:09;17.37;;;11.73;;
16792;SDS011;8513;42.662;23.350;2023-11-21T02:18:37;19.90;;;12.63;;
16792;SDS011;8513;42.662;23.350;2023-11-21T02:21:04;22.83;;;13.80;;
16792;SDS011;8513;42.662;23.350;2023-11-21T02:23:30;18.83;;;12.70;;
16792;SDS011;8513;42.662;23.350;2023-11-21T02:25:55;18.30;;;13.17;;
16792;SDS011;8513;42.662;23.350;2023-11-21T02:28:21;17.73;;;12.90;;
16792;SDS011;8513;42.662;23.350;2023-11-21T02:30:51;20.20;;;13.23;;
16792;SDS011;8513;42.662;23.350;2023-11-21T02:33:21;16.63;;;13.93;;
16792;SDS011;8513;42.662;23.350;2023-11-21T02:35:47;19.27;;;13.17;;
16792;SDS011;8513;42.662;23.350;2023-11-21T02:38:12;16.47;;;13.10;;
16792;SDS011;8513;42.662;23.350;2023-11-21T02:40:38;16.10;;;13.17;;
16792;SDS011;8513;42.662;23.350;2023-11-21T02:43:04;19.83;;;13.17;;
16792;SDS011;8513;42.662;23.350;2023-11-21T02:45:30;20.37;;;14.90;;
16792;SDS011;8513;42.662;23.350;2023-11-21T02:47:56;20.77;;;15.73;;
16792;SDS011;8513;42.662;23.350;2023-11-21T02:50:22;21.53;;;14.87;;
16792;SDS011;8513;42.662;23.350;2023-11-21T02:52:48;20.17;;;14.90;;
16792;SDS011;8513;42.662;23.350;2023-11-21T02:55:14;22.27;;;14.33;;
16792;SDS011;8513;42.662;23.350;2023-11-21T02:57:39;19.17;;;13.97;;
16792;SDS011;8513;42.662;23.350;2023-11-21T03:00:05;20.20;;;13.03;;
16792;SDS011;8513;42.662;23.350;2023-11-21T03:02:41;73.37;;;66.17;;
16792;SDS011;8513;42.662;23.350;2023-11-21T03:05:07;105.37;;;95.83;;
16792;SDS011;8513;42.662;23.350;2023-11-21T03:07:39;69.83;;;62.57;;
16792;SDS011;8513;42.662;23.350;2023-11-21T03:10:05;72.70;;;65.10;;
16792;SDS011;8513;42.662;23.350;2023-11-21T03:12:34;85.03;;;76.83;;
16792;SDS011;8513;42.662;23.350;2023-11-21T03:14:59;92.37;;;83.70;;
16792;SDS011;8513;42.662;23.350;2023-11-21T03:17:26;115.00;;;104.17;;
16792;SDS011;8513;42.662;23.350;2023-11-21T03:19:52;117.30;;;105.90;;
16792;SDS011;8513;42.662;23.350;2023-11-21T03:22:17;116.67;;;105.37;;
16792;SDS011;8513;42.662;23.350;2023-11-21T03:24:43;131.13;;;118.20;;
16792;SDS011;8513;42.662;23.350;2023-11-21T03:27:08;119.10;;;107.77;;
16792;SDS011;8513;42.662;23.350;2023-11-21T03:29:33;114.90;;;104.00;;
16792;SDS011;8513;42.662;23.350;2023-11-21T03:31:59;112.73;;;101.47;;
16792;SDS011;8513;42.662;23.350;2023-11-21T03:34:26;96.90;;;87.43;;
16792;SDS011;8513;42.662;23.350;2023-11-21T03:36:52;102.33;;;92.30;;
16792;SDS011;8513;42.662;23.350;2023-11-21T03:39:19;105.37;;;95.53;;
16792;SDS011;8513;42.662;23.350;2023-11-21T03:41:45;92.07;;;83.00;;
16792;SDS011;8513;42.662;23.350;2023-11-21T03:44:10;103.20;;;92.87;;
16792;SDS011;8513;42.662;23.350;2023-11-21T03:46:36;112.37;;;101.73;;
16792;SDS011;8513;42.662;23.350;2023-11-21T03:49:01;117.10;;;105.73;;
16792;SDS011;8513;42.662;23.350;2023-11-21T03:51:27;130.10;;;117.63;;
16792;SDS011;8513;42.662;23.350;2023-11-21T03:53:53;119.40;;;107.83;;
16792;SDS011;8513;42.662;23.350;2023-11-21T03:56:18;96.80;;;87.27;;
16792;SDS011;8513;42.662;23.350;2023-11-21T03:58:46;76.00;;;68.80;;
16792;SDS011;8513;42.662;23.350;2023-11-21T04:01:18;77.20;;;69.77;;
16792;SDS011;8513;42.662;23.350;2023-11-21T04:03:47;49.97;;;44.73;;
16792;SDS011;8513;42.662;23.350;2023-11-21T04:06:13;45.60;;;41.00;;
16792;SDS011;8513;42.662;23.350;2023-11-21T04:08:39;45.43;;;37.27;;
16792;SDS011;8513;42.662;23.350;2023-11-21T04:11:04;39.23;;;35.03;;
16792;SDS011;8513;42.662;23.350;2023-11-21T04:13:29;39.57;;;35.27;;
16792;SDS011;8513;42.662;23.350;2023-11-21T04:15:55;52.30;;;39.93;;
16792;SDS011;8513;42.662;23.350;2023-11-21T04:18:21;43.40;;;36.10;;
16792;SDS011;8513;42.662;23.350;2023-11-21T04:20:48;34.73;;;30.17;;
16792;SDS011;8513;42.662;23.350;2023-11-21T04:23:14;31.07;;;27.23;;
16792;SDS011;8513;42.662;23.350;2023-11-21T04:25:40;30.30;;;24.37;;
16792;SDS011;8513;42.662;23.350;2023-11-21T04:28:05;18.00;;;14.40;;
16792;SDS011;8513;42.662;23.350;2023-11-21T04:30:31;16.00;;;12.50;;
16792;SDS011;8513;42.662;23.350;2023-11-21T04:32:57;15.60;;;11.97;;
16792;SDS011;8513;42.662;23.350;2023-11-21T04:35:23;14.03;;;11.37;;
16792;SDS011;8513;42.662;23.350;2023-11-21T04:37:48;15.20;;;11.47;;
16792;SDS011;8513;42.662;23.350;2023-11-21T04:40:16;14.23;;;10.37;;
16792;SDS011;8513;42.662;23.350;2023-11-21T04:42:41;15.60;;;10.47;;
16792;SDS011;8513;42.662;23.350;2023-11-21T04:45:07;12.27;;;8.77;;
16792;SDS011;8513;42.662;23.350;2023-11-21T04:47:34;12.77;;;8.73;;
16792;SDS011;8513;42.662;23.350;2023-11-21T04:50:00;11.77;;;9.60;;
16792;SDS011;8513;42.662;23.350;2023-11-21T04:52:26;11.27;;;7.67;;
16792;SDS011;8513;42.662;23.350;2023-11-21T04:54:51;9.77;;;7.63;;
16792;SDS011;8513;42.662;23.350;2023-11-21T04:57:19;10.47;;;7.97;;
16792;SDS011;8513;42.662;23.350;2023-11-21T04:59:45;10.23;;;7.60;;
16792;SDS011;8513;42.662;23.350;2023-11-21T05:02:10;13.10;;;10.07;;
16792;SDS011;8513;42.662;23.350;2023-11-21T05:04:37;17.17;;;12.20;;
16792;SDS011;8513;42.662;23.350;2023-11-21T05:07:03;16.57;;;10.70;;
16792;SDS011;8513;42.662;23.350;2023-11-21T05:09:28;13.77;;;11.80;;
16792;SDS011;8513;42.662;23.350;2023-11-21T05:11:56;18.63;;;13.80;;
16792;SDS011;8513;42.662;23.350;2023-11-21T05:14:22;20.73;;;16.00;;
16792;SDS011;8513;42.662;23.350;2023-11-21T05:16:48;20.73;;;14.47;;
16792;SDS011;8513;42.662;23.350;2023-11-21T05:19:13;18.87;;;14.17;;
16792;SDS011;8513;42.662;23.350;2023-11-21T05:21:38;17.60;;;13.17;;
16792;SDS011;8513;42.662;23.350;2023-11-21T05:24:04;21.17;;;16.53;;
16792;SDS011;8513;42.662;23.350;2023-11-21T05:26:30;27.27;;;18.30;;
16792;SDS011;8513;42.662;23.350;2023-11-21T05:28:56;22.30;;;17.30;;
16792;SDS011;8513;42.662;23.350;2023-11-21T05:31:21;21.17;;;16.07;;
16792;SDS011;8513;42.662;23.350;2023-11-21T05:33:47;19.13;;;13.90;;
16792;SDS011;8513;42.662;23.350;2023-11-21T05:36:12;22.40;;;16.73;;
16792;SDS011;8513;42.662;23.350;2023-11-21T05:38:38;21.83;;;16.13;;
16792;SDS011;8513;42.662;23.350;2023-11-21T05:41:03;22.47;;;16.70;;
16792;SDS011;8513;42.662;23.350;2023-11-21T05:43:29;25.40;;;18.03;;
16792;SDS011;8513;42.662;23.350;2023-11-21T05:45:57;24.70;;;18.93;;
16792;SDS011;8513;42.662;23.350;2023-11-21T05:48:22;26.17;;;17.70;;
16792;SDS011;8513;42.662;23.350;2023-11-21T05:50:48;22.37;;;16.63;;
16792;SDS011;8513;42.662;23.350;2023-11-21T05:53:15;19.93;;;14.37;;
16792;SDS011;8513;42.662;23.350;2023-11-21T05:55:41;19.53;;;14.43;;
16792;SDS011;8513;42.662;23.350;2023-11-21T05:58:07;21.60;;;14.40;;
16792;SDS011;8513;42.662;23.350;2023-11-21T06:00:33;22.70;;;13.13;;
16792;SDS011;8513;42.662;23.350;2023-11-21T06:02:58;45.50;;;15.87;;
16792;SDS011;8513;42.662;23.350;2023-11-21T06:05:24;20.90;;;14.63;;
16792;SDS011;8513;42.662;23.350;2023-11-21T06:07:51;23.27;;;15.10;;
16792;SDS011;8513;42.662;23.350;2023-11-21T06:10:23;20.73;;;14.60;;
16792;SDS011;8513;42.662;23.350;2023-11-21T06:12:50;21.50;;;15.87;;
16792;SDS011;8513;42.662;23.350;2023-11-21T06:15:15;23.63;;;16.57;;
16792;SDS011;8513;42.662;23.350;2023-11-21T06:17:44;25.30;;;15.47;;
16792;SDS011;8513;42.662;23.350;2023-11-21T06:20:14;23.87;;;16.17;;
16792;SDS011;8513;42.662;23.350;2023-11-21T06:22:43;20.67;;;15.60;;
16792;SDS011;8513;42.662;23.350;2023-11-21T06:25:11;26.97;;;16.27;;
16792;SDS011;8513;42.662;23.350;2023-11-21T06:27:39;33.23;;;16.70;;
16792;SDS011;8513;42.662;23.350;2023-11-21T06:30:05;22.27;;;15.07;;
16792;SDS011;8513;42.662;23.350;2023-11-21T06:32:32;30.43;;;15.87;;
16792;SDS011;8513;42.662;23.350;2023-11-21T06:34:57;23.43;;;14.33;;
16792;SDS011;8513;42.662;23.350;2023-11-21T06:37:25;20.30;;;14.40;;
16792;SDS011;8513;42.662;23.350;2023-11-21T06:39:51;22.27;;;14.20;;
16792;SDS011;8513;42.662;23.350;2023-11-21T06:42:17;19.53;;;14.27;;
16792;SDS011;8513;42.662;23.350;2023-11-21T06:44:44;17.57;;;14.37;;
16792;SDS011;8513;42.662;23.350;2023-11-21T06:47:10;23.13;;;14.90;;
16792;SDS011;8513;42.662;23.350;2023-11-21T06:49:36;22.30;;;14.00;;
16792;SDS011;8513;42.662;23.350;2023-11-21T06:52:03;21.37;;;14.20;;
16792;SDS011;8513;42.662;23.350;2023-11-21T06:54:31;21.03;;;16.13;;
16792;SDS011;8513;42.662;23.350;2023-11-21T06:56:57;22.33;;;15.13;;
16792;SDS011;8513;42.662;23.350;2023-11-21T06:59:23;19.77;;;15.27;;
16792;SDS011;8513;42.662;23.350;2023-11-21T07:01:49;21.20;;;14.53;;
16792;SDS011;8513;42.662;23.350;2023-11-21T07:04:15;21.70;;;14.20;;
16792;SDS011;8513;42.662;23.350;2023-11-21T07:06:40;16.90;;;13.43;;
16792;SDS011;8513;42.662;23.350;2023-11-21T07:09:06;23.43;;;13.50;;
16792;SDS011;8513;42.662;23.350;2023-11-21T07:11:42;22.53;;;13.73;;
16792;SDS011;8513;42.662;23.350;2023-11-21T07:14:10;16.33;;;11.13;;
16792;SDS011;8513;42.662;23.350;2023-11-21T07:16:37;13.97;;;9.03;;
16792;SDS011;8513;42.662;23.350;2023-11-21T07:19:06;14.07;;;9.77;;
16792;SDS011;8513;42.662;23.350;2023-11-21T07:21:35;12.17;;;9.13;;
16792;SDS011;8513;42.662;23.350;2023-11-21T07:24:04;13.03;;;9.17;;
16792;SDS011;8513;42.662;23.350;2023-11-21T07:26:31;15.00;;;9.33;;
16792;SDS011;8513;42.662;23.350;2023-11-21T07:28:57;15.20;;;10.10;;
16792;SDS011;8513;42.662;23.350;2023-11-21T07:31:22;15.77;;;10.60;;
16792;SDS011;8513;42.662;23.350;2023-11-21T07:33:49;14.87;;;10.50;;
16792;SDS011;8513;42.662;23.350;2023-11-21T07:36:16;16.53;;;10.30;;
16792;SDS011;8513;42.662;23.350;2023-11-21T07:38:43;15.13;;;10.63;;
16792;SDS011;8513;42.662;23.350;2023-11-21T07:41:10;14.27;;;10.13;;
16792;SDS011;8513;42.662;23.350;2023-11-21T07:43:36;12.97;;;10.10;;
16792;SDS011;8513;42.662;23.350;2023-11-21T07:46:02;15.50;;;10.23;;
16792;SDS011;8513;42.662;23.350;2023-11-21T07:48:31;11.73;;;9.40;;
16792;SDS011;8513;42.662;23.350;2023-11-21T07:50:57;25.20;;;10.63;;
16792;SDS011;8513;42.662;23.350;2023-11-21T07:53:23;15.57;;;10.23;;
16792;SDS011;8513;42.662;23.350;2023-11-21T07:55:54;14.97;;;9.77;;
16792;SDS011;8513;42.662;23.350;2023-11-21T07:58:19;15.27;;;9.73;;
16792;SDS011;8513;42.662;23.350;2023-11-21T08:00:45;12.87;;;9.63;;
16792;SDS011;8513;42.662;23.350;2023-11-21T08:03:10;15.27;;;10.10;;
16792;SDS011;8513;42.662;23.350;2023-11-21T08:05:36;13.53;;;10.30;;
16792;SDS011;8513;42.662;23.350;2023-11-21T08:08:02;17.83;;;10.47;;
16792;SDS011;8513;42.662;23.350;2023-11-21T08:10:27;17.33;;;10.40;;
16792;SDS011;8513;42.662;23.350;2023-11-21T08:12:52;14.23;;;10.73;;
16792;SDS011;8513;42.662;23.350;2023-11-21T08:15:18;18.63;;;11.50;;
16792;SDS011;8513;42.662;23.350;2023-11-21T08:17:45;14.00;;;10.60;;
16792;SDS011;8513;42.662;23.350;2023-11-21T08:20:11;11.23;;;9.17;;
16792;SDS011;8513;42.662;23.350;2023-11-21T08:22:37;11.43;;;10.20;;
16792;SDS011;8513;42.662;23.350;2023-11-21T08:25:02;14.40;;;9.87;;
16792;SDS011;8513;42.662;23.350;2023-11-21T08:27:31;15.27;;;10.90;;
16792;SDS011;8513;42.662;23.350;2023-11-21T08:29:56;23.17;;;11.07;;
16792;SDS011;8513;42.662;23.350;2023-11-21T08:32:22;13.33;;;10.60;;
16792;SDS011;8513;42.662;23.350;2023-11-21T08:34:47;17.03;;;12.03;;
16792;SDS011;8513;42.662;23.350;2023-11-21T08:37:16;18.27;;;12.30;;
16792;SDS011;8513;42.662;23.350;2023-11-21T08:39:41;18.37;;;11.77;;
16792;SDS011;8513;42.662;23.350;2023-11-21T08:42:08;20.37;;;13.37;;
16792;SDS011;8513;42.662;23.350;2023-11-21T08:44:33;16.30;;;11.93;;
16792;SDS011;8513;42.662;23.350;2023-11-21T08:46:59;17.93;;;12.77;;
16792;SDS011;8513;42.662;23.350;2023-11-21T08:49:24;18.57;;;12.70;;
16792;SDS011;8513;42.662;23.350;2023-11-21T08:51:52;17.30;;;12.50;;
16792;SDS011;8513;42.662;23.350;2023-11-21T08:54:20;18.90;;;12.70;;
16792;SDS011;8513;42.662;23.350;2023-11-21T08:56:46;21.03;;;15.37;;
16792;SDS011;8513;42.662;23.350;2023-11-21T08:59:11;16.13;;;12.53;;
16792;SDS011;8513;42.662;23.350;2023-11-21T09:01:39;14.60;;;11.93;;
16792;SDS011;8513;42.662;23.350;2023-11-21T09:04:05;17.60;;;11.10;;
16792;SDS011;8513;42.662;23.350;2023-11-21T09:06:31;17.23;;;11.27;;
16792;SDS011;8513;42.662;23.350;2023-11-21T09:08:57;18.07;;;11.10;;
16792;SDS011;8513;42.662;23.350;2023-11-21T09:11:23;17.87;;;11.63;;
16792;SDS011;8513;42.662;23.350;2023-11-21T09:13:48;16.47;;;11.70;;
16792;SDS011;8513;42.662;23.350;2023-11-21T09:16:14;20.67;;;11.87;;
16792;SDS011;8513;42.662;23.350;2023-11-21T09:18:40;17.20;;;12.57;;
16792;SDS011;8513;42.662;23.350;2023-11-21T09:21:06;26.87;;;20.60;;
16792;SDS011;8513;42.662;23.350;2023-11-21T09:23:31;21.97;;;18.53;;
16792;SDS011;8513;42.662;23.350;2023-11-21T09:25:57;26.60;;;20.13;;
16792;SDS011;8513;42.662;23.350;2023-11-21T09:28:24;32.20;;;20.30;;
16792;SDS011;8513;42.662;23.350;2023-11-21T09:30:52;28.90;;;22.03;;
16792;SDS011;8513;42.662;23.350;2023-11-21T09:33:18;35.07;;;22.10;;
16792;SDS011;8513;42.662;23.350;2023-11-21T09:35:43;24.73;;;21.20;;
16792;SDS011;8513;42.662;23.350;2023-11-21T09:38:09;31.20;;;23.13;;
16792;SDS011;8513;42.662;23.350;2023-11-21T09:40:38;29.37;;;22.53;;
16792;SDS011;8513;42.662;23.350;2023-11-21T09:43:08;30.57;;;22.40;;
16792;SDS011;8513;42.662;23.350;2023-11-21T09:45:41;23.47;;;17.33;;
16792;SDS011;8513;42.662;23.350;2023-11-21T09:48:10;20.57;;;16.97;;
16792;SDS011;8513;42.662;23.350;2023-11-21T09:50:36;26.50;;;17.50;;
16792;SDS011;8513;42.662;23.350;2023-11-21T09:55:36;25.43;;;16.50;;
16792;SDS011;8513;42.662;23.350;2023-11-21T09:58:04;27.13;;;16.47;;
16792;SDS011;8513;42.662;23.350;2023-11-21T10:00:32;22.00;;;16.00;;
16792;SDS011;8513;42.662;23.350;2023-11-21T10:02:58;22.27;;;16.33;;
16792;SDS011;8513;42.662;23.350;2023-11-21T10:05:25;24.23;;;16.60;;
16792;SDS011;8513;42.662;23.350;2023-11-21T10:07:50;23.00;;;15.03;;
16792;SDS011;8513;42.662;23.350;2023-11-21T10:10:20;24.57;;;15.37;;
16792;SDS011;8513;42.662;23.350;2023-11-21T10:12:48;19.27;;;13.50;;
16792;SDS011;8513;42.662;23.350;2023-11-21T10:15:18;18.90;;;13.73;;
16792;SDS011;8513;42.662;23.350;2023-11-21T10:17:46;15.13;;;13.07;;
16792;SDS011;8513;42.662;23.350;2023-11-21T10:20:14;29.57;;;14.93;;
16792;SDS011;8513;42.662;23.350;2023-11-21T10:22:40;21.33;;;16.03;;
16792;SDS011;8513;42.662;23.350;2023-11-21T10:25:07;21.70;;;15.63;;
16792;SDS011;8513;42.662;23.350;2023-11-21T10:27:37;22.80;;;14.20;;
16792;SDS011;8513;42.662;23.350;2023-11-21T10:30:06;22.13;;;15.63;;
16792;SDS011;8513;42.662;23.350;2023-11-21T10:32:38;23.43;;;14.87;;
16792;SDS011;8513;42.662;23.350;2023-11-21T10:35:05;18.80;;;14.27;;
16792;SDS011;8513;42.662;23.350;2023-11-21T10:37:35;17.30;;;12.47;;
16792;SDS011;8513;42.662;23.350;2023-11-21T10:40:04;17.27;;;12.67;;
16792;SDS011;8513;42.662;23.350;2023-11-21T10:42:37;16.15;;;12.68;;
16792;SDS011;8513;42.662;23.350;2023-11-21T10:45:03;15.60;;;11.07;;
16792;SDS011;8513;42.662;23.350;2023-11-21T10:47:34;11.83;;;10.57;;
16792;SDS011;8513;42.662;23.350;2023-11-21T10:50:01;15.33;;;10.97;;
16792;SDS011;8513;42.662;23.350;2023-11-21T10:52:27;15.88;;;10.35;;
16792;SDS011;8513;42.662;23.350;2023-11-21T10:54:52;12.57;;;10.57;;
16792;SDS011;8513;42.662;23.350;2023-11-21T10:57:18;16.47;;;11.30;;
16792;SDS011;8513;42.662;23.350;2023-11-21T10:59:47;17.57;;;11.03;;
16792;SDS011;8513;42.662;23.350;2023-11-21T11:02:23;12.93;;;11.60;;
16792;SDS011;8513;42.662;23.350;2023-11-21T11:04:53;16.00;;;12.70;;
16792;SDS011;8513;42.662;23.350;2023-11-21T11:07:21;19.53;;;13.07;;
16792;SDS011;8513;42.662;23.350;2023-11-21T11:09:49;17.70;;;12.80;;
16792;SDS011;8513;42.662;23.350;2023-11-21T11:12:15;16.03;;;13.43;;
16792;SDS011;8513;42.662;23.350;2023-11-21T11:14:42;18.50;;;12.77;;
16792;SDS011;8513;42.662;23.350;2023-11-21T11:17:09;16.10;;;11.80;;
16792;SDS011;8513;42.662;23.350;2023-11-21T11:19:35;17.37;;;11.67;;
16792;SDS011;8513;42.662;23.350;2023-11-21T11:25:06;17.07;;;11.63;;
16792;SDS011;8513;42.662;23.350;2023-11-21T11:27:55;13.55;;;10.63;;
16792;SDS011;8513;42.662;23.350;2023-11-21T11:30:32;13.15;;;11.30;;
16792;SDS011;8513;42.662;23.350;2023-11-21T11:35:57;18.47;;;11.77;;
16792;SDS011;8513;42.662;23.350;2023-11-21T11:38:38;16.42;;;10.88;;
16792;SDS011;8513;42.662;23.350;2023-11-21T11:41:04;15.13;;;11.02;;
16792;SDS011;8513;42.662;23.350;2023-11-21T11:43:34;14.30;;;11.48;;
16792;SDS011;8513;42.662;23.350;2023-11-21T11:46:09;15.90;;;11.82;;
16792;SDS011;8513;42.662;23.350;2023-11-21T11:48:39;14.33;;;11.17;;
16792;SDS011;8513;42.662;23.350;2023-11-21T11:51:11;13.13;;;10.77;;
16792;SDS011;8513;42.662;23.350;2023-11-21T11:53:47;15.53;;;11.37;;
16792;SDS011;8513;42.662;23.350;2023-11-21T11:58:53;13.37;;;10.10;;
16792;SDS011;8513;42.662;23.350;2023-11-21T12:01:20;12.20;;;10.23;;
16792;SDS011;8513;42.662;23.350;2023-11-21T12:06:45;14.27;;;10.90;;
16792;SDS011;8513;42.662;23.350;2023-11-21T12:09:23;13.53;;;11.23;;
16792;SDS011;8513;42.662;23.350;2023-11-21T12:11:49;14.13;;;12.20;;
16792;SDS011;8513;42.662;23.350;2023-11-21T12:14:15;18.67;;;13.70;;
16792;SDS011;8513;42.662;23.350;2023-11-21T12:16:41;17.53;;;13.53;;
16792;SDS011;8513;42.662;23.350;2023-11-21T12:19:08;19.27;;;14.87;;
16792;SDS011;8513;42.662;23.350;2023-11-21T12:21:37;17.67;;;15.20;;
16792;SDS011;8513;42.662;23.350;2023-11-21T12:24:04;22.17;;;15.90;;
16792;SDS011;8513;42.662;23.350;2023-11-21T12:26:33;23.17;;;16.93;;
16792;SDS011;8513;42.662;23.350;2023-11-21T12:28:59;21.03;;;17.07;;
16792;SDS011;8513;42.662;23.350;2023-11-21T12:31:26;23.87;;;17.20;;
16792;SDS011;8513;42.662;23.350;2023-11-21T12:33:54;21.20;;;17.70;;
16792;SDS011;8513;42.662;23.350;2023-11-21T12:36:21;23.30;;;18.53;;
16792;SDS011;8513;42.662;23.350;2023-11-21T12:38:48;30.27;;;21.27;;
16792;SDS011;8513;42.662;23.350;2023-11-21T12:41:14;32.90;;;23.30;;
16792;SDS011;8513;42.662;23.350;2023-11-21T12:43:42;25.20;;;19.33;;
16792;SDS011;8513;42.662;23.350;2023-11-21T12:46:08;28.87;;;21.27;;
16792;SDS011;8513;42.662;23.350;2023-11-21T12:48:38;28.50;;;19.63;;
16792;SDS011;8513;42.662;23.350;2023-11-21T12:51:09;32.70;;;22.17;;
16792;SDS011;8513;42.662;23.350;2023-11-21T12:53:35;28.53;;;22.07;;
16792;SDS011;8513;42.662;23.350;2023-11-21T12:56:07;25.47;;;20.70;;
16792;SDS011;8513;42.662;23.350;2023-11-21T12:58:37;29.03;;;22.63;;
16792;SDS011;8513;42.662;23.350;2023-11-21T13:01:04;28.83;;;22.37;;
16792;SDS011;8513;42.662;23.350;2023-11-21T13:03:36;36.37;;;24.17;;
16792;SDS011;8513;42.662;23.350;2023-11-21T13:06:02;32.50;;;25.93;;
16792;SDS011;8513;42.662;23.350;2023-11-21T13:08:30;28.17;;;22.50;;
16792;SDS011;8513;42.662;23.350;2023-11-21T13:10:58;30.40;;;23.20;;
16792;SDS011;8513;42.662;23.350;2023-11-21T13:13:24;32.07;;;24.07;;
16792;SDS011;8513;42.662;23.350;2023-11-21T13:15:51;30.97;;;22.63;;
16792;SDS011;8513;42.662;23.350;2023-11-21T13:18:21;26.00;;;22.90;;
16792;SDS011;8513;42.662;23.350;2023-11-21T13:20:47;28.97;;;22.93;;
16792;SDS011;8513;42.662;23.350;2023-11-21T13:23:13;33.03;;;23.60;;
16792;SDS011;8513;42.662;23.350;2023-11-21T13:25:41;28.80;;;23.00;;
16792;SDS011;8513;42.662;23.350;2023-11-21T13:28:13;25.60;;;22.23;;
16792;SDS011;8513;42.662;23.350;2023-11-21T13:30:40;28.30;;;22.87;;
16792;SDS011;8513;42.662;23.350;2023-11-21T13:33:06;26.57;;;23.27;;
16792;SDS011;8513;42.662;23.350;2023-11-21T13:35:37;26.17;;;23.07;;
16792;SDS011;8513;42.662;23.350;2023-11-21T13:40:34;27.60;;;23.77;;
16792;SDS011;8513;42.662;23.350;2023-11-21T13:43:05;29.90;;;23.33;;
16792;SDS011;8513;42.662;23.350;2023-11-21T13:45:34;28.60;;;23.33;;
16792;SDS011;8513;42.662;23.350;2023-11-21T13:48:07;29.47;;;22.53;;
16792;SDS011;8513;42.662;23.350;2023-11-21T13:50:35;27.20;;;22.83;;
16792;SDS011;8513;42.662;23.350;2023-11-21T13:53:01;31.73;;;22.10;;
16792;SDS011;8513;42.662;23.350;2023-11-21T13:55:34;26.83;;;22.37;;
16792;SDS011;8513;42.662;23.350;2023-11-21T13:58:00;28.80;;;24.40;;
16792;SDS011;8513;42.662;23.350;2023-11-21T14:00:28;30.13;;;23.60;;
16792;SDS011;8513;42.662;23.350;2023-11-21T14:03:17;30.23;;;23.70;;
16792;SDS011;8513;42.662;23.350;2023-11-21T14:05:47;29.70;;;23.23;;
16792;SDS011;8513;42.662;23.350;2023-11-21T14:08:19;29.43;;;22.80;;
16792;SDS011;8513;42.662;23.350;2023-11-21T14:10:46;29.70;;;22.53;;
16792;SDS011;8513;42.662;23.350;2023-11-21T14:13:18;31.17;;;24.13;;
16792;SDS011;8513;42.662;23.350;2023-11-21T14:15:48;32.77;;;23.67;;
16792;SDS011;8513;42.662;23.350;2023-11-21T14:18:16;30.90;;;24.80;;
16792;SDS011;8513;42.662;23.350;2023-11-21T14:20:42;28.93;;;25.07;;
16792;SDS011;8513;42.662;23.350;2023-11-21T14:23:09;32.53;;;24.03;;
16792;SDS011;8513;42.662;23.350;2023-11-21T14:25:35;30.20;;;23.97;;
16792;SDS011;8513;42.662;23.350;2023-11-21T14:28:02;30.47;;;23.37;;
16792;SDS011;8513;42.662;23.350;2023-11-21T14:30:31;34.07;;;23.63;;
16792;SDS011;8513;42.662;23.350;2023-11-21T14:32:59;35.30;;;24.67;;
16792;SDS011;8513;42.662;23.350;2023-11-21T14:35:24;35.20;;;26.47;;
16792;SDS011;8513;42.662;23.350;2023-11-21T14:37:51;33.87;;;25.00;;